KDLS/DLS METAR and TAF weather

Enter ICAO airport designator
Station Type Date Time Source
KDLS METAR 2018/07/20 13:53 UTC NOAA

KDLS 201353Z AUTO 29007KT 10SM CLR 16/07 A3008 RMK AO2 SLP187 T01610072


Station Type Date Time Source
KDLS Decoded METAR 2018/07/20 13:53 UTC NOAA

THE DALLES MUNICIPAL AIRPORT , OR, United States (KDLS) 45-37N 121-10W 71M
Jul 20, 2018 - 09:53 AM EDT / 2018.07.20 1353 UTC
Wind: from the WNW (290 degrees) at 8 MPH (7 KT):0
Visibility: 10 mile(s):0
Sky conditions: clear
Temperature: 61.0 F (16.1 C)
Dew Point: 45.0 F (7.2 C)
Relative Humidity: 55%
Pressure (altimeter): 30.08 in. Hg (1018 hPa)
ob: KDLS 201353Z AUTO 29007KT 10SM CLR 16/07 A3008 RMK AO2 SLP187 T01610072
cycle: 14

Station Type Date Time Source
KDLS TAF 2018/07/20 13:21 UTC NOAA

TAF
AMD KDLS 201319Z 2013/2112 30014G22KT P6SM SKC
FM202000 33018G26KT P6SM SKC
FM210900 32012G20KT P6SM SKC


Example: see airport list